Time;durP1;ratioP1;P1;durP2;ratioP2;P2;SDS_P1;SDS_P2;PMS_P1;PMS_P2;Temp;Humidity;BMP_temperature;BMP_pressure;BME280_temperature;BME280_humidity;BME280_pressure;Samples;Min_cycle;Max_cycle;Signal;HPM_P1;HPM_P2
2022/09/06 00:00:52;;;;;;;;;;;;;;;;;;2132711;27;19923;-41
2022/09/06 00:01:53;;;;;;;;;;;;;;;;;;2132942;27;19923;-41
2022/09/06 00:02:54;;;;;;;;;;;;;;;;;;2132720;27;19930;-41
2022/09/06 00:03:55;;;;;;;;;;;;;;;;;;2132565;27;20482;-41
2022/09/06 00:04:56;;;;;;;;;;;;;;;;;;2132773;27;20285;-40
2022/09/06 00:05:57;;;;;;;;;;;;;;;;;;2132587;27;19944;-41
2022/09/06 00:06:57;;;;;;;;;;;;;;;;;;2132670;27;19923;-41
2022/09/06 00:07:58;;;;;;;;;;;;;;;;;;2132599;27;20398;-40
2022/09/06 00:08:59;;;;;;;;;;;;;;;;;;2132766;27;20018;-40
2022/09/06 00:10:00;;;;;;;;;;;;;;;;;;2132638;27;19946;-40
2022/09/06 00:11:01;;;;;;;;;;;;;;;;;;2132538;27;20051;-41
2022/09/06 00:12:02;;;;;;;;;;;;;;;;;;2132778;27;19923;-46
2022/09/06 00:13:03;;;;;;;;;;;;;;;;;;2132655;27;19952;-44
2022/09/06 00:14:04;;;;;;;;;;;;;;;;;;2132506;27;19927;-44
2022/09/06 00:15:05;;;;;;;;;;;;;;;;;;2132736;27;19969;-40
2022/09/06 00:16:06;;;;;;;;;;;;;;;;;;2132633;27;19927;-41
2022/09/06 00:17:07;;;;;;;;;;;;;;;;;;2132432;27;19923;-41
2022/09/06 00:18:08;;;;;;;;;;;;;;;;;;2132637;27;19983;-40
2022/09/06 00:19:09;;;;;;;;;;;;;;;;;;2132525;27;20014;-40
2022/09/06 00:20:10;;;;;;;;;;;;;;;;;;2132636;27;20026;-40
2022/09/06 00:21:10;;;;;;;;;;;;;;;;;;2132505;27;20373;-40
2022/09/06 00:22:11;;;;;;;;;;;;;;;;;;2132507;27;19930;-40
2022/09/06 00:23:12;;;;;;;;;;;;;;;;;;2132634;27;19923;-40
2022/09/06 00:24:13;;;;;;;;;;;;;;;;;;2132382;27;20295;-41
2022/09/06 00:25:14;;;;;;;;;;;;;;;;;;2132391;27;19923;-41
2022/09/06 00:26:15;;;;;;;;;;;;;;;;;;2132358;27;19930;-41
2022/09/06 00:27:16;;;;;;;;;;;;;;;;;;2132417;27;20013;-40
2022/09/06 00:28:17;;;;;;;;;;;;;;;;;;2132424;27;19927;-41
2022/09/06 00:29:18;;;;;;;;;;;;;;;;;;2132695;27;19923;-41
2022/09/06 00:30:19;;;;;;;;;;;;;;;;;;2132460;27;19923;-40
2022/09/06 00:31:20;;;;;;;;;;;;;;;;;;2132350;27;19923;-40
2022/09/06 00:32:21;;;;;;;;;;;;;;;;;;2132526;27;19923;-40
2022/09/06 00:33:22;;;;;;;;;;;;;;;;;;2132412;27;20001;-40
2022/09/06 00:34:23;;;;;;;;;;;;;;;;;;2132588;27;20459;-40
2022/09/06 00:35:24;;;;;;;;;;;;;;;;;;2132345;27;19983;-40
2022/09/06 00:36:25;;;;;;;;;;;;;;;;;;2132431;27;19923;-40
2022/09/06 00:37:26;;;;;;;;;;;;;;;;;;2132395;27;19978;-41
2022/09/06 00:38:27;;;;;;;;;;;;;;;;;;2132519;27;20414;-40
2022/09/06 00:39:28;;;;;;;;;;;;;;;;;;2132422;27;19923;-40
2022/09/06 00:40:29;;;;;;;;;;;;;;;;;;2132358;27;20375;-40
2022/09/06 00:41:29;;;;;;;;;;;;;;;;;;2132341;27;20439;-40
2022/09/06 00:42:31;;;;;;;;;;;;;;;;;;2132331;27;19976;-40
2022/09/06 00:43:31;;;;;;;;;;;;;;;;;;2132481;27;19951;-40
2022/09/06 00:44:32;;;;;;;;;;;;;;;;;;2131638;27;19979;-40
2022/09/06 00:45:33;;;;;;;;;;;;;;;;;;2132358;27;20017;-40
2022/09/06 00:46:34;;;;;;;;;;;;;;;;;;2132031;27;20315;-40
2022/09/06 00:47:35;;;;;;;;;;;;;;;;;;2132299;27;19923;-41
2022/09/06 00:48:36;;;;;;;;;;;;;;;;;;2132267;27;19927;-40
2022/09/06 00:49:37;;;;;;;;;;;;;;;;;;2132480;27;19923;-40
2022/09/06 00:50:38;;;;;;;;;;;;;;;;;;2132356;27;20376;-40
2022/09/06 00:51:39;;;;;;;;;;;;;;;;;;2132234;27;19958;-40
2022/09/06 00:52:40;;;;;;;;;;;;;;;;;;2132297;27;19959;-40
2022/09/06 00:53:40;;;;;;;;;;;;;;;;;;2132381;27;20030;-40
2022/09/06 00:54:41;;;;;;;;;;;;;;;;;;2132382;27;19965;-40
2022/09/06 00:55:42;;;;;;;;;;;;;;;;;;2132245;27;19994;-40
2022/09/06 00:56:43;;;;;;;;;;;;;;;;;;2132151;27;19923;-40
2022/09/06 00:57:45;;;;;;;;;;;;;;;;;;2132228;27;19923;-40
2022/09/06 00:58:46;;;;;;;;;;;;;;;;;;2132385;27;19933;-40
2022/09/06 00:59:47;;;;;;;;;;;;;;;;;;2132403;27;19923;-40
2022/09/06 01:00:48;;;;;;;;;;;;;;;;;;2132363;27;19930;-40
2022/09/06 01:01:48;;;;;;;;;;;;;;;;;;2132241;27;19923;-40
2022/09/06 01:02:50;;;;;;;;;;;;;;;;;;2132312;27;19923;-40
2022/09/06 01:03:50;;;;;;;;;;;;;;;;;;2132541;27;19923;-40
2022/09/06 01:04:51;;;;;;;;;;;;;;;;;;2132145;27;19930;-40
2022/09/06 01:05:52;;;;;;;;;;;;;;;;;;2132221;27;20009;-40
2022/09/06 01:06:55;;;;;;;;;;;;;;;;;;2132182;27;20240;-41
2022/09/06 01:07:55;;;;;;;;;;;;;;;;;;2132374;27;19931;-40
2022/09/06 01:08:57;;;;;;;;;;;;;;;;;;2132076;27;19923;-40
2022/09/06 01:09:58;;;;;;;;;;;;;;;;;;2132201;27;20287;-40
2022/09/06 01:10:59;;;;;;;;;;;;;;;;;;2132171;27;19923;-40
2022/09/06 01:11:59;;;;;;;;;;;;;;;;;;2132029;27;20412;-40
2022/09/06 01:13:00;;;;;;;;;;;;;;;;;;2132208;27;19923;-41
2022/09/06 01:14:01;;;;;;;;;;;;;;;;;;2132280;27;19927;-40
2022/09/06 01:15:03;;;;;;;;;;;;;;;;;;2132631;27;19923;-41
2022/09/06 01:16:04;;;;;;;;;;;;;;;;;;2132303;27;19971;-40
2022/09/06 01:17:05;;;;;;;;;;;;;;;;;;2132261;27;19927;-40
2022/09/06 01:18:06;;;;;;;;;;;;;;;;;;2132176;27;20184;-40
2022/09/06 01:19:07;;;;;;;;;;;;;;;;;;2132366;27;19930;-40
2022/09/06 01:20:08;;;;;;;;;;;;;;;;;;2132162;27;19965;-40
2022/09/06 01:21:09;;;;;;;;;;;;;;;;;;2132212;27;20009;-40
2022/09/06 01:22:10;;;;;;;;;;;;;;;;;;2132131;27;19923;-40
2022/09/06 01:23:11;;;;;;;;;;;;;;;;;;2132311;27;19923;-40
2022/09/06 01:24:12;;;;;;;;;;;;;;;;;;2132204;27;19947;-40
2022/09/06 01:25:13;;;;;;;;;;;;;;;;;;2132049;27;19923;-40
2022/09/06 01:26:14;;;;;;;;;;;;;;;;;;2132011;27;20029;-40
2022/09/06 01:27:15;;;;;;;;;;;;;;;;;;2131992;27;19923;-40
2022/09/06 01:28:15;;;;;;;;;;;;;;;;;;2132403;27;19946;-40
2022/09/06 01:29:16;;;;;;;;;;;;;;;;;;2132183;27;20371;-40
2022/09/06 01:30:17;;;;;;;;;;;;;;;;;;2132263;27;19969;-40
2022/09/06 01:31:18;;;;;;;;;;;;;;;;;;2132116;27;20295;-40
2022/09/06 01:32:19;;;;;;;;;;;;;;;;;;2132120;27;20014;-40
2022/09/06 01:33:20;;;;;;;;;;;;;;;;;;2132066;27;19927;-40
2022/09/06 01:34:21;;;;;;;;;;;;;;;;;;2131965;27;20354;-40
2022/09/06 01:35:22;;;;;;;;;;;;;;;;;;2131992;27;19975;-40
2022/09/06 01:36:23;;;;;;;;;;;;;;;;;;2132066;27;19922;-40
2022/09/06 01:37:24;;;;;;;;;;;;;;;;;;2132265;27;20342;-40
2022/09/06 01:38:25;;;;;;;;;;;;;;;;;;2132101;27;19929;-40
2022/09/06 01:39:26;;;;;;;;;;;;;;;;;;2132099;27;20295;-40
2022/09/06 01:40:27;;;;;;;;;;;;;;;;;;2132020;27;19930;-40
2022/09/06 01:41:28;;;;;;;;;;;;;;;;;;2131834;27;20454;-40
2022/09/06 01:42:29;;;;;;;;;;;;;;;;;;2131703;27;20384;-40
2022/09/06 01:43:30;;;;;;;;;;;;;;;;;;2132070;27;19923;-40
2022/09/06 01:44:30;;;;;;;;;;;;;;;;;;2132128;27;20028;-40
2022/09/06 01:45:31;;;;;;;;;;;;;;;;;;2132127;27;20439;-40
2022/09/06 01:46:32;;;;;;;;;;;;;;;;;;2131879;27;19926;-40
2022/09/06 01:47:34;;;;;;;;;;;;;;;;;;2131939;27;19929;-40
2022/09/06 01:48:34;;;;;;;;;;;;;;;;;;2131947;27;20275;-40
2022/09/06 01:49:36;;;;;;;;;;;;;;;;;;2131909;27;19931;-40
2022/09/06 01:50:36;;;;;;;;;;;;;;;;;;2132028;27;20010;-40
2022/09/06 01:51:37;;;;;;;;;;;;;;;;;;2131734;27;20013;-40
2022/09/06 01:52:38;;;;;;;;;;;;;;;;;;2132027;27;20037;-40
2022/09/06 01:53:39;;;;;;;;;;;;;;;;;;2131825;27;20280;-40
2022/09/06 01:54:40;;;;;;;;;;;;;;;;;;2132023;27;19923;-40
2022/09/06 01:55:41;;;;;;;;;;;;;;;;;;2131730;27;19923;-40
2022/09/06 01:56:42;;;;;;;;;;;;;;;;;;2131063;27;19975;-40
2022/09/06 01:57:43;;;;;;;;;;;;;;;;;;2131984;27;20424;-40
2022/09/06 01:58:43;;;;;;;;;;;;;;;;;;2131815;27;19974;-40
2022/09/06 01:59:44;;;;;;;;;;;;;;;;;;2131913;27;19923;-40
2022/09/06 02:00:46;;;;;;;;;;;;;;;;;;2132015;27;20152;-40
2022/09/06 02:01:47;;;;;;;;;;;;;;;;;;2132072;27;19954;-40
2022/09/06 02:02:48;;;;;;;;;;;;;;;;;;2131870;27;19923;-40
2022/09/06 02:03:49;;;;;;;;;;;;;;;;;;2131799;27;19923;-40
2022/09/06 02:04:49;;;;;;;;;;;;;;;;;;2131904;27;20017;-40
2022/09/06 02:05:50;;;;;;;;;;;;;;;;;;2131765;27;19930;-40
2022/09/06 02:06:51;;;;;;;;;;;;;;;;;;2131737;27;20038;-42
2022/09/06 02:07:52;;;;;;;;;;;;;;;;;;2131795;27;19923;-40
2022/09/06 02:08:53;;;;;;;;;;;;;;;;;;2131893;27;20010;-40
2022/09/06 02:09:54;;;;;;;;;;;;;;;;;;2131781;27;20387;-40
2022/09/06 02:10:55;;;;;;;;;;;;;;;;;;2131936;27;20006;-40
2022/09/06 02:11:56;;;;;;;;;;;;;;;;;;2131633;27;20033;-40
2022/09/06 02:12:57;;;;;;;;;;;;;;;;;;2131979;27;19983;-40
2022/09/06 02:13:58;;;;;;;;;;;;;;;;;;2131866;27;20292;-40
2022/09/06 02:14:58;;;;;;;;;;;;;;;;;;2131789;27;20011;-40
2022/09/06 02:16:00;;;;;;;;;;;;;;;;;;2131794;27;19927;-40
2022/09/06 02:17:01;;;;;;;;;;;;;;;;;;2131841;27;19929;-40
2022/09/06 02:18:02;;;;;;;;;;;;;;;;;;2131782;27;19923;-40
2022/09/06 02:19:02;;;;;;;;;;;;;;;;;;2131738;27;20060;-40
2022/09/06 02:20:03;;;;;;;;;;;;;;;;;;2131890;27;19931;-40
2022/09/06 02:21:05;;;;;;;;;;;;;;;;;;2131735;27;19962;-40
2022/09/06 02:22:06;;;;;;;;;;;;;;;;;;2131816;27;19927;-40
2022/09/06 02:23:07;;;;;;;;;;;;;;;;;;2131738;27;20014;-40
2022/09/06 02:24:08;;;;;;;;;;;;;;;;;;2131870;27;19962;-40
2022/09/06 02:25:09;;;;;;;;;;;;;;;;;;2131710;27;20460;-40
2022/09/06 02:26:10;;;;;;;;;;;;;;;;;;2131871;27;19923;-40
2022/09/06 02:27:10;;;;;;;;;;;;;;;;;;2131636;27;19978;-40
2022/09/06 02:28:11;;;;;;;;;;;;;;;;;;2131741;27;19923;-40
2022/09/06 02:29:12;;;;;;;;;;;;;;;;;;2131856;27;20006;-40
2022/09/06 02:30:13;;;;;;;;;;;;;;;;;;2131745;27;19923;-40
2022/09/06 02:31:14;;;;;;;;;;;;;;;;;;2131814;27;19927;-40
2022/09/06 02:32:15;;;;;;;;;;;;;;;;;;2131816;27;20264;-40
2022/09/06 02:33:16;;;;;;;;;;;;;;;;;;2131646;27;20319;-40
2022/09/06 02:34:17;;;;;;;;;;;;;;;;;;2131665;27;19930;-40
2022/09/06 02:35:17;;;;;;;;;;;;;;;;;;2131681;27;20018;-40
2022/09/06 02:36:19;;;;;;;;;;;;;;;;;;2131604;27;19962;-41
2022/09/06 02:37:20;;;;;;;;;;;;;;;;;;2131508;27;20431;-40
2022/09/06 02:38:21;;;;;;;;;;;;;;;;;;2131754;27;19934;-39
2022/09/06 02:39:23;;;;;;;;;;;;;;;;;;2131570;27;19927;-39
2022/09/06 02:40:24;;;;;;;;;;;;;;;;;;2131726;27;19930;-40
2022/09/06 02:41:25;;;;;;;;;;;;;;;;;;2131569;27;20014;-40
2022/09/06 02:42:26;;;;;;;;;;;;;;;;;;2131750;27;19931;-40
2022/09/06 02:43:27;;;;;;;;;;;;;;;;;;2131595;27;20116;-40
2022/09/06 02:44:28;;;;;;;;;;;;;;;;;;2131801;27;20010;-40
2022/09/06 02:45:29;;;;;;;;;;;;;;;;;;2131557;27;19923;-40
2022/09/06 02:46:30;;;;;;;;;;;;;;;;;;2131618;27;19930;-40
2022/09/06 02:47:31;;;;;;;;;;;;;;;;;;2131649;27;19924;-40
2022/09/06 02:48:32;;;;;;;;;;;;;;;;;;2131861;27;19927;-40
2022/09/06 02:49:32;;;;;;;;;;;;;;;;;;2131781;27;20005;-40
2022/09/06 02:50:34;;;;;;;;;;;;;;;;;;2131650;27;20146;-40
2022/09/06 02:51:35;;;;;;;;;;;;;;;;;;2131623;27;19971;-40
2022/09/06 02:52:36;;;;;;;;;;;;;;;;;;2131524;27;20007;-39
2022/09/06 02:53:36;;;;;;;;;;;;;;;;;;2131583;27;20006;-39
2022/09/06 02:54:37;;;;;;;;;;;;;;;;;;2131727;27;19975;-39
2022/09/06 02:55:38;;;;;;;;;;;;;;;;;;2131608;27;20360;-39
2022/09/06 02:56:39;;;;;;;;;;;;;;;;;;2131592;27;19930;-39
2022/09/06 02:57:40;;;;;;;;;;;;;;;;;;2131823;27;20010;-39
2022/09/06 02:58:41;;;;;;;;;;;;;;;;;;2131545;27;19923;-39
2022/09/06 02:59:42;;;;;;;;;;;;;;;;;;2131771;27;20379;-45
2022/09/06 03:00:43;;;;;;;;;;;;;;;;;;2131639;27;19931;-43
2022/09/06 03:01:44;;;;;;;;;;;;;;;;;;2131496;27;20018;-43
2022/09/06 03:02:45;;;;;;;;;;;;;;;;;;2131646;27;19923;-44
2022/09/06 03:03:46;;;;;;;;;;;;;;;;;;2131753;27;19926;-44
2022/09/06 03:04:47;;;;;;;;;;;;;;;;;;2131678;27;19923;-43
2022/09/06 03:05:48;;;;;;;;;;;;;;;;;;2131390;27;20068;-44
2022/09/06 03:06:49;;;;;;;;;;;;;;;;;;2131508;27;20370;-45
2022/09/06 03:07:50;;;;;;;;;;;;;;;;;;2132211;27;20017;-43
2022/09/06 03:08:51;;;;;;;;;;;;;;;;;;2133255;27;19923;-45
2022/09/06 03:09:52;;;;;;;;;;;;;;;;;;2132941;27;20325;-44
2022/09/06 03:10:53;;;;;;;;;;;;;;;;;;2133044;27;19952;-45
2022/09/06 03:11:54;;;;;;;;;;;;;;;;;;2132875;27;20355;-44
2022/09/06 03:12:55;;;;;;;;;;;;;;;;;;2132900;27;19923;-44
2022/09/06 03:13:55;;;;;;;;;;;;;;;;;;2133212;27;20232;-45
2022/09/06 03:14:57;;;;;;;;;;;;;;;;;;2132986;27;19965;-44
2022/09/06 03:15:57;;;;;;;;;;;;;;;;;;2133279;27;19957;-44
2022/09/06 03:17:01;;;;;;;;;;;;;;;;;;2132868;27;19923;-45
2022/09/06 03:18:03;;;;;;;;;;;;;;;;;;2132982;27;19923;-45
2022/09/06 03:19:03;;;;;;;;;;;;;;;;;;2132909;27;19929;-44
2022/09/06 03:20:04;;;;;;;;;;;;;;;;;;2133024;27;20390;-44
2022/09/06 03:21:05;;;;;;;;;;;;;;;;;;2132953;27;19923;-44
2022/09/06 03:22:06;;;;;;;;;;;;;;;;;;2132839;27;19927;-45
2022/09/06 03:23:08;;;;;;;;;;;;;;;;;;2133057;27;19923;-45
2022/09/06 03:24:09;;;;;;;;;;;;;;;;;;2132850;27;20375;-44
2022/09/06 03:25:10;;;;;;;;;;;;;;;;;;2132895;27;20484;-44
2022/09/06 03:26:11;;;;;;;;;;;;;;;;;;2133159;27;19927;-40
2022/09/06 03:27:12;;;;;;;;;;;;;;;;;;2133096;27;20052;-40
2022/09/06 03:28:13;;;;;;;;;;;;;;;;;;2133011;27;20006;-40
2022/09/06 03:29:14;;;;;;;;;;;;;;;;;;2133041;27;20002;-40
2022/09/06 03:30:16;;;;;;;;;;;;;;;;;;2132898;27;20010;-41
2022/09/06 03:31:16;;;;;;;;;;;;;;;;;;2132873;27;20017;-40
2022/09/06 03:32:17;;;;;;;;;;;;;;;;;;2132964;27;20329;-40
2022/09/06 03:33:18;;;;;;;;;;;;;;;;;;2132664;27;19923;-40
2022/09/06 03:34:19;;;;;;;;;;;;;;;;;;2132781;27;19923;-40
2022/09/06 03:35:20;;;;;;;;;;;;;;;;;;2132654;27;19923;-40
2022/09/06 03:36:21;;;;;;;;;;;;;;;;;;2132893;27;19931;-40
2022/09/06 03:37:22;;;;;;;;;;;;;;;;;;2132762;27;20396;-40
2022/09/06 03:38:23;;;;;;;;;;;;;;;;;;2132805;27;19931;-40
2022/09/06 03:39:24;;;;;;;;;;;;;;;;;;2132762;27;19923;-40
2022/09/06 03:40:27;;;;;;;;;;;;;;;;;;2132857;27;19923;-40
2022/09/06 03:41:28;;;;;;;;;;;;;;;;;;2132937;27;19958;-40
2022/09/06 03:42:29;;;;;;;;;;;;;;;;;;2133010;27;19946;-40
2022/09/06 03:43:31;;;;;;;;;;;;;;;;;;2132876;27;19946;-40
2022/09/06 03:44:32;;;;;;;;;;;;;;;;;;2133081;27;20029;-44
2022/09/06 03:45:33;;;;;;;;;;;;;;;;;;2132862;27;20017;-44
2022/09/06 03:46:34;;;;;;;;;;;;;;;;;;2132860;27;19923;-45
2022/09/06 03:47:35;;;;;;;;;;;;;;;;;;2132841;27;20269;-44
2022/09/06 03:48:36;;;;;;;;;;;;;;;;;;2132721;27;19929;-43
2022/09/06 03:49:37;;;;;;;;;;;;;;;;;;2132721;27;19977;-45
2022/09/06 03:50:38;;;;;;;;;;;;;;;;;;2132850;27;20386;-44
2022/09/06 03:51:38;;;;;;;;;;;;;;;;;;2132769;27;19927;-45
2022/09/06 03:52:40;;;;;;;;;;;;;;;;;;2132767;27;19923;-45
2022/09/06 03:53:40;;;;;;;;;;;;;;;;;;2132850;27;19933;-44
2022/09/06 03:54:41;;;;;;;;;;;;;;;;;;2132791;27;19930;-44
2022/09/06 03:55:42;;;;;;;;;;;;;;;;;;2132664;27;19993;-45
2022/09/06 03:56:43;;;;;;;;;;;;;;;;;;2132658;27;19923;-45
2022/09/06 03:57:44;;;;;;;;;;;;;;;;;;2132675;27;19970;-45
2022/09/06 03:58:45;;;;;;;;;;;;;;;;;;2132841;27;19923;-45
2022/09/06 03:59:46;;;;;;;;;;;;;;;;;;2132675;27;19998;-43
2022/09/06 04:00:47;;;;;;;;;;;;;;;;;;2132587;27;20014;-45
2022/09/06 04:01:48;;;;;;;;;;;;;;;;;;2132567;27;19930;-46
2022/09/06 04:02:49;;;;;;;;;;;;;;;;;;2132751;27;20065;-45
2022/09/06 04:03:50;;;;;;;;;;;;;;;;;;2132652;27;19981;-44
2022/09/06 04:04:54;;;;;;;;;;;;;;;;;;2132579;27;19983;-44
2022/09/06 04:05:55;;;;;;;;;;;;;;;;;;2132750;27;19930;-41
2022/09/06 04:06:56;;;;;;;;;;;;;;;;;;2132473;27;20407;-40
2022/09/06 04:07:57;;;;;;;;;;;;;;;;;;2132767;27;19927;-39
2022/09/06 04:08:57;;;;;;;;;;;;;;;;;;2132579;27;19959;-39
2022/09/06 04:09:58;;;;;;;;;;;;;;;;;;2132700;27;19930;-39
2022/09/06 04:10:59;;;;;;;;;;;;;;;;;;2132674;27;19961;-39
2022/09/06 04:12:00;;;;;;;;;;;;;;;;;;2124097;27;20279;-39
2022/09/06 04:13:01;;;;;;;;;;;;;;;;;;2124025;28;19930;-39
2022/09/06 04:14:02;;;;;;;;;;;;;;;;;;2124182;28;19966;-39
2022/09/06 04:15:03;;;;;;;;;;;;;;;;;;2124163;28;19929;-39
2022/09/06 04:16:04;;;;;;;;;;;;;;;;;;2123932;28;19934;-39
2022/09/06 04:17:05;;;;;;;;;;;;;;;;;;2124002;27;20014;-39
2022/09/06 04:18:06;;;;;;;;;;;;;;;;;;2123990;28;19970;-39
2022/09/06 04:19:09;;;;;;;;;;;;;;;;;;2123613;27;19923;-39
2022/09/06 04:20:10;;;;;;;;;;;;;;;;;;2123811;28;19924;-40
2022/09/06 04:21:11;;;;;;;;;;;;;;;;;;2124019;28;19923;-39
2022/09/06 04:22:12;;;;;;;;;;;;;;;;;;2124444;28;19928;-44
2022/09/06 04:23:13;;;;;;;;;;;;;;;;;;2124080;28;19923;-45
2022/09/06 04:24:14;;;;;;;;;;;;;;;;;;2124167;28;20010;-43
2022/09/06 04:25:14;;;;;;;;;;;;;;;;;;2123787;28;20082;-44
2022/09/06 04:26:16;;;;;;;;;;;;;;;;;;2124046;27;19967;-46
2022/09/06 04:27:16;;;;;;;;;;;;;;;;;;2123915;28;20071;-43
2022/09/06 04:28:18;;;;;;;;;;;;;;;;;;2124118;28;19923;-43
2022/09/06 04:29:18;;;;;;;;;;;;;;;;;;2123948;28;19931;-43
2022/09/06 04:30:19;;;;;;;;;;;;;;;;;;2131693;27;19993;-44
2022/09/06 04:31:20;;;;;;;;;;;;;;;;;;2132198;27;19962;-43
2022/09/06 04:32:21;;;;;;;;;;;;;;;;;;2132398;27;20292;-43
2022/09/06 04:33:24;;;;;;;;;;;;;;;;;;2132764;27;20002;-43
2022/09/06 04:34:25;;;;;;;;;;;;;;;;;;2132634;27;20018;-44
2022/09/06 04:35:26;;;;;;;;;;;;;;;;;;2132500;27;19966;-48
2022/09/06 04:36:28;;;;;;;;;;;;;;;;;;2132464;27;19930;-44
2022/09/06 04:37:29;;;;;;;;;;;;;;;;;;2132452;27;20067;-44
2022/09/06 04:38:30;;;;;;;;;;;;;;;;;;2132432;27;20013;-44
2022/09/06 04:39:30;;;;;;;;;;;;;;;;;;2132586;27;19930;-44
2022/09/06 04:40:32;;;;;;;;;;;;;;;;;;2132490;27;19933;-45
2022/09/06 04:41:33;;;;;;;;;;;;;;;;;;2132553;27;19930;-46
2022/09/06 04:42:33;;;;;;;;;;;;;;;;;;2132710;27;19923;-45
2022/09/06 04:43:35;;;;;;;;;;;;;;;;;;2132486;27;20007;-45
2022/09/06 04:44:35;;;;;;;;;;;;;;;;;;2132503;27;19954;-45
2022/09/06 04:45:36;;;;;;;;;;;;;;;;;;2132563;27;20378;-42
2022/09/06 04:46:37;;;;;;;;;;;;;;;;;;2132469;27;19923;-42
2022/09/06 04:47:38;;;;;;;;;;;;;;;;;;2132425;27;19951;-43
2022/09/06 04:48:39;;;;;;;;;;;;;;;;;;2132458;27;19923;-42
2022/09/06 04:49:40;;;;;;;;;;;;;;;;;;2132337;27;19923;-42
2022/09/06 04:50:41;;;;;;;;;;;;;;;;;;2132429;27;19955;-42
2022/09/06 04:51:42;;;;;;;;;;;;;;;;;;2132203;27;20040;-43
2022/09/06 04:52:42;;;;;;;;;;;;;;;;;;2132443;27;20006;-42
2022/09/06 04:53:43;;;;;;;;;;;;;;;;;;2132308;27;19938;-42
2022/09/06 04:54:44;;;;;;;;;;;;;;;;;;2132456;27;19992;-43
2022/09/06 04:55:45;;;;;;;;;;;;;;;;;;2132428;27;20075;-43
2022/09/06 04:56:46;;;;;;;;;;;;;;;;;;2132457;27;20018;-42
2022/09/06 04:57:47;;;;;;;;;;;;;;;;;;2132442;27;20303;-42
2022/09/06 04:58:51;;;;;;;;;;;;;;;;;;2132231;27;19930;-44
2022/09/06 04:59:52;;;;;;;;;;;;;;;;;;2132337;27;19962;-42
2022/09/06 05:00:53;;;;;;;;;;;;;;;;;;2132227;27;19927;-43
2022/09/06 05:01:54;;;;;;;;;;;;;;;;;;2132520;27;19931;-44
2022/09/06 05:02:55;;;;;;;;;;;;;;;;;;2132359;27;19938;-43
2022/09/06 05:03:56;;;;;;;;;;;;;;;;;;2132269;27;19966;-43
2022/09/06 05:04:57;;;;;;;;;;;;;;;;;;2132337;27;19923;-43
2022/09/06 05:05:58;;;;;;;;;;;;;;;;;;2132372;27;20014;-45
2022/09/06 05:06:59;;;;;;;;;;;;;;;;;;2132139;27;19923;-45
2022/09/06 05:08:00;;;;;;;;;;;;;;;;;;2132350;27;19967;-46
2022/09/06 05:09:01;;;;;;;;;;;;;;;;;;2132247;27;19923;-46
2022/09/06 05:10:02;;;;;;;;;;;;;;;;;;2132145;27;20013;-45
2022/09/06 05:11:03;;;;;;;;;;;;;;;;;;2132355;27;19930;-43
2022/09/06 05:12:04;;;;;;;;;;;;;;;;;;2132676;27;20036;-45
2022/09/06 05:13:05;;;;;;;;;;;;;;;;;;2132530;27;19923;-46
2022/09/06 05:14:06;;;;;;;;;;;;;;;;;;2132138;27;19923;-45
2022/09/06 05:15:07;;;;;;;;;;;;;;;;;;2132078;27;20458;-46
2022/09/06 05:16:08;;;;;;;;;;;;;;;;;;2132060;27;19923;-44
2022/09/06 05:17:09;;;;;;;;;;;;;;;;;;2132161;27;19923;-45
2022/09/06 05:18:10;;;;;;;;;;;;;;;;;;2132202;27;20242;-44
2022/09/06 05:19:15;;;;;;;;;;;;;;;;;;2132331;27;19959;-45
2022/09/06 05:20:16;;;;;;;;;;;;;;;;;;2132254;27;19934;-44
2022/09/06 05:21:17;;;;;;;;;;;;;;;;;;2132107;27;20006;-46
2022/09/06 05:22:18;;;;;;;;;;;;;;;;;;2132136;27;20400;-45
2022/09/06 05:23:19;;;;;;;;;;;;;;;;;;2132331;27;20013;-45
2022/09/06 05:24:23;;;;;;;;;;;;;;;;;;2132274;27;19923;-45
2022/09/06 05:25:24;;;;;;;;;;;;;;;;;;2132080;27;20013;-44
2022/09/06 05:26:25;;;;;;;;;;;;;;;;;;2132092;27;19930;-43
2022/09/06 05:27:25;;;;;;;;;;;;;;;;;;2132391;27;19969;-43
2022/09/06 05:28:26;;;;;;;;;;;;;;;;;;2132101;27;20501;-45
2022/09/06 05:29:27;;;;;;;;;;;;;;;;;;2132445;27;20343;-43
2022/09/06 05:30:31;;;;;;;;;;;;;;;;;;2132268;27;19930;-43
2022/09/06 05:31:31;;;;;;;;;;;;;;;;;;2132094;27;19938;-44
2022/09/06 05:32:33;;;;;;;;;;;;;;;;;;2132046;27;19946;-43
2022/09/06 05:33:33;;;;;;;;;;;;;;;;;;2132148;27;20014;-44
2022/09/06 05:34:34;;;;;;;;;;;;;;;;;;2131992;27;19958;-43
2022/09/06 05:35:35;;;;;;;;;;;;;;;;;;2132193;27;20009;-43
2022/09/06 05:36:37;;;;;;;;;;;;;;;;;;2131950;27;19927;-43
2022/09/06 05:37:38;;;;;;;;;;;;;;;;;;2131975;27;20443;-43
2022/09/06 05:38:39;;;;;;;;;;;;;;;;;;2132179;27;19923;-44
2022/09/06 05:39:40;;;;;;;;;;;;;;;;;;2132338;27;19962;-44
2022/09/06 05:40:41;;;;;;;;;;;;;;;;;;2131892;27;20295;-46
2022/09/06 05:41:42;;;;;;;;;;;;;;;;;;2132081;27;19972;-45
2022/09/06 05:42:43;;;;;;;;;;;;;;;;;;2132054;27;19923;-45
2022/09/06 05:43:44;;;;;;;;;;;;;;;;;;2132093;27;19924;-45
2022/09/06 05:44:45;;;;;;;;;;;;;;;;;;2132024;27;20014;-45
2022/09/06 05:45:46;;;;;;;;;;;;;;;;;;2131880;27;19937;-47
2022/09/06 05:46:47;;;;;;;;;;;;;;;;;;2131881;27;20391;-47
2022/09/06 05:47:48;;;;;;;;;;;;;;;;;;2131933;27;19930;-47
2022/09/06 05:48:49;;;;;;;;;;;;;;;;;;2131949;27;20383;-45
2022/09/06 05:49:50;;;;;;;;;;;;;;;;;;2131981;27;19923;-44
2022/09/06 05:50:51;;;;;;;;;;;;;;;;;;2132088;27;20017;-46
2022/09/06 05:51:52;;;;;;;;;;;;;;;;;;2132019;27;19927;-46
2022/09/06 05:52:53;;;;;;;;;;;;;;;;;;2132095;27;20009;-47
2022/09/06 05:53:54;;;;;;;;;;;;;;;;;;2132109;27;19923;-44
2022/09/06 05:54:55;;;;;;;;;;;;;;;;;;2132002;27;20014;-46
2022/09/06 05:55:56;;;;;;;;;;;;;;;;;;2131869;27;19927;-47
2022/09/06 05:56:56;;;;;;;;;;;;;;;;;;2131827;27;19927;-44
2022/09/06 05:57:58;;;;;;;;;;;;;;;;;;2132025;27;19931;-45
2022/09/06 05:58:58;;;;;;;;;;;;;;;;;;2132056;27;19930;-46
2022/09/06 05:59:59;;;;;;;;;;;;;;;;;;2132059;27;20284;-45
2022/09/06 06:01:00;;;;;;;;;;;;;;;;;;2132012;27;19926;-46
2022/09/06 06:02:01;;;;;;;;;;;;;;;;;;2131918;27;19923;-44
2022/09/06 06:03:07;;;;;;;;;;;;;;;;;;2132103;27;19923;-45
2022/09/06 06:04:08;;;;;;;;;;;;;;;;;;2131850;27;19930;-46
2022/09/06 06:05:09;;;;;;;;;;;;;;;;;;2132506;27;19923;-43
2022/09/06 06:06:10;;;;;;;;;;;;;;;;;;2131824;27;19968;-44
2022/09/06 06:07:11;;;;;;;;;;;;;;;;;;2132151;27;20014;-43
2022/09/06 06:08:12;;;;;;;;;;;;;;;;;;2132001;27;19923;-43
2022/09/06 06:09:13;;;;;;;;;;;;;;;;;;2131926;27;20372;-44
2022/09/06 06:10:14;;;;;;;;;;;;;;;;;;2132187;27;19923;-44
2022/09/06 06:11:15;;;;;;;;;;;;;;;;;;2131907;27;19950;-45
2022/09/06 06:12:16;;;;;;;;;;;;;;;;;;2131943;27;20280;-45
2022/09/06 06:13:17;;;;;;;;;;;;;;;;;;2132090;27;20021;-46
2022/09/06 06:14:18;;;;;;;;;;;;;;;;;;2132022;27;20002;-45
2022/09/06 06:15:20;;;;;;;;;;;;;;;;;;2131856;27;20009;-45
2022/09/06 06:16:20;;;;;;;;;;;;;;;;;;2131809;27;20010;-45
2022/09/06 06:17:22;;;;;;;;;;;;;;;;;;2131836;27;20296;-45
2022/09/06 06:18:23;;;;;;;;;;;;;;;;;;2131839;27;20052;-45
2022/09/06 06:19:25;;;;;;;;;;;;;;;;;;2131908;27;19927;-45
2022/09/06 06:20:26;;;;;;;;;;;;;;;;;;2131988;27;20014;-44
2022/09/06 06:21:27;;;;;;;;;;;;;;;;;;2131824;27;19934;-45
2022/09/06 06:22:28;;;;;;;;;;;;;;;;;;2131613;27;20002;-47
2022/09/06 06:23:29;;;;;;;;;;;;;;;;;;2131924;27;20375;-45
2022/09/06 06:24:30;;;;;;;;;;;;;;;;;;2131615;27;20018;-44
2022/09/06 06:25:31;;;;;;;;;;;;;;;;;;2131759;27;19923;-45
2022/09/06 06:26:31;;;;;;;;;;;;;;;;;;2131776;27;19938;-46
2022/09/06 06:27:34;;;;;;;;;;;;;;;;;;2132039;27;19930;-44
2022/09/06 06:28:34;;;;;;;;;;;;;;;;;;2131704;27;19968;-43
2022/09/06 06:29:35;;;;;;;;;;;;;;;;;;2131969;27;20261;-43
2022/09/06 06:30:36;;;;;;;;;;;;;;;;;;2131766;27;20377;-43
2022/09/06 06:31:38;;;;;;;;;;;;;;;;;;2131636;27;19927;-43
2022/09/06 06:32:39;;;;;;;;;;;;;;;;;;2131642;27;19924;-43
2022/09/06 06:33:40;;;;;;;;;;;;;;;;;;2131817;27;20395;-43
2022/09/06 06:34:41;;;;;;;;;;;;;;;;;;2131886;27;20035;-44
2022/09/06 06:35:45;;;;;;;;;;;;;;;;;;2131736;27;19973;-46
2022/09/06 06:36:46;;;;;;;;;;;;;;;;;;2131953;27;19923;-43
2022/09/06 06:37:47;;;;;;;;;;;;;;;;;;2131664;27;20392;-44
2022/09/06 06:38:48;;;;;;;;;;;;;;;;;;2131810;27;20005;-44
2022/09/06 06:39:49;;;;;;;;;;;;;;;;;;2131688;27;19923;-43
2022/09/06 06:40:49;;;;;;;;;;;;;;;;;;2131651;27;20419;-43
2022/09/06 06:41:50;;;;;;;;;;;;;;;;;;2131663;27;19927;-44
2022/09/06 06:42:51;;;;;;;;;;;;;;;;;;2132490;27;19923;-44
2022/09/06 06:43:52;;;;;;;;;;;;;;;;;;2133164;27;19923;-43
2022/09/06 06:44:53;;;;;;;;;;;;;;;;;;2133561;27;20009;-44
2022/09/06 06:45:54;;;;;;;;;;;;;;;;;;2133078;27;20321;-45
2022/09/06 06:46:56;;;;;;;;;;;;;;;;;;2133250;27;19971;-45
2022/09/06 06:47:57;;;;;;;;;;;;;;;;;;2133261;27;19935;-44
2022/09/06 06:48:58;;;;;;;;;;;;;;;;;;2133085;27;19935;-45
2022/09/06 06:49:59;;;;;;;;;;;;;;;;;;2133333;27;19948;-48
2022/09/06 06:51:00;;;;;;;;;;;;;;;;;;2133104;27;19972;-44
2022/09/06 06:52:01;;;;;;;;;;;;;;;;;;2133031;27;19923;-45
2022/09/06 06:53:02;;;;;;;;;;;;;;;;;;2133556;27;20139;-45
2022/09/06 06:54:03;;;;;;;;;;;;;;;;;;2133268;27;19924;-46
2022/09/06 06:55:05;;;;;;;;;;;;;;;;;;2133219;27;19923;-45
2022/09/06 06:56:09;;;;;;;;;;;;;;;;;;2133180;27;19995;-45
2022/09/06 06:57:11;;;;;;;;;;;;;;;;;;2133049;27;20017;-45